sensor_id;sensor_type;location;lat;lon;timestamp;temperature;humidity
33988;DHT22;37428;53.580;-1.666;2023-04-12T00:02:49;5.40;81.00
33988;DHT22;37428;53.580;-1.666;2023-04-12T00:05:53;5.40;81.90
33988;DHT22;37428;53.580;-1.666;2023-04-12T00:08:57;5.30;82.60
33988;DHT22;37428;53.580;-1.666;2023-04-12T00:11:59;5.20;83.40
33988;DHT22;37428;53.580;-1.666;2023-04-12T00:15:04;5.20;83.70
33988;DHT22;37428;53.580;-1.666;2023-04-12T00:18:06;5.10;83.50
33988;DHT22;37428;53.580;-1.666;2023-04-12T00:21:08;5.00;84.00
33988;DHT22;37428;53.580;-1.666;2023-04-12T00:24:12;4.90;84.50
33988;DHT22;37428;53.580;-1.666;2023-04-12T00:27:14;4.90;84.70
33988;DHT22;37428;53.580;-1.666;2023-04-12T00:30:16;4.80;84.00
33988;DHT22;37428;53.580;-1.666;2023-04-12T00:33:18;4.80;83.50
33988;DHT22;37428;53.580;-1.666;2023-04-12T00:36:21;4.80;83.10
33988;DHT22;37428;53.580;-1.666;2023-04-12T00:39:25;4.70;82.40
33988;DHT22;37428;53.580;-1.666;2023-04-12T00:42:27;4.70;82.70
33988;DHT22;37428;53.580;-1.666;2023-04-12T00:45:30;4.70;83.00
33988;DHT22;37428;53.580;-1.666;2023-04-12T00:48:32;4.70;83.30
33988;DHT22;37428;53.580;-1.666;2023-04-12T00:51:35;4.60;83.10
33988;DHT22;37428;53.580;-1.666;2023-04-12T00:54:38;4.60;82.80
33988;DHT22;37428;53.580;-1.666;2023-04-12T00:57:41;4.50;82.70
33988;DHT22;37428;53.580;-1.666;2023-04-12T01:00:43;4.50;82.10
33988;DHT22;37428;53.580;-1.666;2023-04-12T01:03:53;4.40;82.10
33988;DHT22;37428;53.580;-1.666;2023-04-12T01:07:07;4.40;82.30
33988;DHT22;37428;53.580;-1.666;2023-04-12T01:10:34;4.40;82.30
33988;DHT22;37428;53.580;-1.666;2023-04-12T01:13:44;4.40;82.10
33988;DHT22;37428;53.580;-1.666;2023-04-12T01:16:50;4.40;81.60
33988;DHT22;37428;53.580;-1.666;2023-04-12T01:19:57;4.30;81.90
33988;DHT22;37428;53.580;-1.666;2023-04-12T01:23:19;4.30;81.60
33988;DHT22;37428;53.580;-1.666;2023-04-12T01:26:40;4.40;82.50
33988;DHT22;37428;53.580;-1.666;2023-04-12T01:29:44;4.40;83.20
33988;DHT22;37428;53.580;-1.666;2023-04-12T01:32:50;4.30;82.60
33988;DHT22;37428;53.580;-1.666;2023-04-12T01:35:53;4.30;82.60
33988;DHT22;37428;53.580;-1.666;2023-04-12T01:38:56;4.30;82.40
33988;DHT22;37428;53.580;-1.666;2023-04-12T01:41:59;4.30;82.30
33988;DHT22;37428;53.580;-1.666;2023-04-12T01:45:03;4.30;81.60
33988;DHT22;37428;53.580;-1.666;2023-04-12T01:48:07;4.30;80.80
33988;DHT22;37428;53.580;-1.666;2023-04-12T01:51:13;4.30;80.30
33988;DHT22;37428;53.580;-1.666;2023-04-12T01:54:18;4.20;80.20
33988;DHT22;37428;53.580;-1.666;2023-04-12T01:57:23;4.10;79.70
33988;DHT22;37428;53.580;-1.666;2023-04-12T02:00:28;4.10;79.60
33988;DHT22;37428;53.580;-1.666;2023-04-12T02:03:31;4.10;79.30
33988;DHT22;37428;53.580;-1.666;2023-04-12T02:06:34;4.00;79.40
33988;DHT22;37428;53.580;-1.666;2023-04-12T02:09:37;4.00;79.20
33988;DHT22;37428;53.580;-1.666;2023-04-12T02:12:39;4.00;79.20
33988;DHT22;37428;53.580;-1.666;2023-04-12T02:15:43;3.90;79.20
33988;DHT22;37428;53.580;-1.666;2023-04-12T02:18:45;3.90;79.40
33988;DHT22;37428;53.580;-1.666;2023-04-12T02:21:47;3.90;79.10
33988;DHT22;37428;53.580;-1.666;2023-04-12T02:24:50;3.80;78.30
33988;DHT22;37428;53.580;-1.666;2023-04-12T02:27:52;3.80;78.90
33988;DHT22;37428;53.580;-1.666;2023-04-12T02:30:56;3.80;78.40
33988;DHT22;37428;53.580;-1.666;2023-04-12T02:33:58;3.80;77.90
33988;DHT22;37428;53.580;-1.666;2023-04-12T02:37:00;3.70;78.20
33988;DHT22;37428;53.580;-1.666;2023-04-12T02:40:03;3.70;77.80
33988;DHT22;37428;53.580;-1.666;2023-04-12T02:43:09;3.70;77.60
33988;DHT22;37428;53.580;-1.666;2023-04-12T02:46:17;3.60;77.80
33988;DHT22;37428;53.580;-1.666;2023-04-12T02:49:19;3.60;77.50
33988;DHT22;37428;53.580;-1.666;2023-04-12T02:52:21;3.50;77.60
33988;DHT22;37428;53.580;-1.666;2023-04-12T02:55:23;3.50;77.90
33988;DHT22;37428;53.580;-1.666;2023-04-12T02:58:26;3.50;77.40
33988;DHT22;37428;53.580;-1.666;2023-04-12T03:01:30;3.50;77.70
33988;DHT22;37428;53.580;-1.666;2023-04-12T03:04:34;3.50;77.40
33988;DHT22;37428;53.580;-1.666;2023-04-12T03:07:39;3.50;77.40
33988;DHT22;37428;53.580;-1.666;2023-04-12T03:10:41;3.50;77.80
33988;DHT22;37428;53.580;-1.666;2023-04-12T03:13:43;3.50;78.00
33988;DHT22;37428;53.580;-1.666;2023-04-12T03:16:47;3.50;78.50
33988;DHT22;37428;53.580;-1.666;2023-04-12T03:19:51;3.50;78.00
33988;DHT22;37428;53.580;-1.666;2023-04-12T03:22:53;3.50;78.20
33988;DHT22;37428;53.580;-1.666;2023-04-12T03:25:55;3.50;78.30
33988;DHT22;37428;53.580;-1.666;2023-04-12T03:28:59;3.50;77.80
33988;DHT22;37428;53.580;-1.666;2023-04-12T03:32:06;3.50;77.80
33988;DHT22;37428;53.580;-1.666;2023-04-12T03:35:09;3.50;77.10
33988;DHT22;37428;53.580;-1.666;2023-04-12T03:38:11;3.50;77.30
33988;DHT22;37428;53.580;-1.666;2023-04-12T03:41:13;3.50;77.20
33988;DHT22;37428;53.580;-1.666;2023-04-12T03:44:15;3.50;77.30
33988;DHT22;37428;53.580;-1.666;2023-04-12T03:47:19;3.60;77.80
33988;DHT22;37428;53.580;-1.666;2023-04-12T03:50:21;3.50;77.90
33988;DHT22;37428;53.580;-1.666;2023-04-12T03:53:23;3.50;78.70
33988;DHT22;37428;53.580;-1.666;2023-04-12T03:56:26;3.50;79.50
33988;DHT22;37428;53.580;-1.666;2023-04-12T03:59:29;3.50;79.50
33988;DHT22;37428;53.580;-1.666;2023-04-12T04:02:33;3.50;79.70
33988;DHT22;37428;53.580;-1.666;2023-04-12T04:05:35;3.40;79.70
33988;DHT22;37428;53.580;-1.666;2023-04-12T04:08:38;3.40;79.70
33988;DHT22;37428;53.580;-1.666;2023-04-12T04:11:42;3.40;79.70
33988;DHT22;37428;53.580;-1.666;2023-04-12T04:14:44;3.40;79.80
33988;DHT22;37428;53.580;-1.666;2023-04-12T04:17:47;3.30;79.80
33988;DHT22;37428;53.580;-1.666;2023-04-12T04:20:49;3.30;79.60
33988;DHT22;37428;53.580;-1.666;2023-04-12T04:23:52;3.30;79.80
33988;DHT22;37428;53.580;-1.666;2023-04-12T04:26:54;3.30;79.70
33988;DHT22;37428;53.580;-1.666;2023-04-12T04:29:55;3.30;80.20
33988;DHT22;37428;53.580;-1.666;2023-04-12T04:33:00;3.30;79.90
33988;DHT22;37428;53.580;-1.666;2023-04-12T04:36:03;3.30;79.50
33988;DHT22;37428;53.580;-1.666;2023-04-12T04:39:05;3.30;79.80
33988;DHT22;37428;53.580;-1.666;2023-04-12T04:42:07;3.20;79.50
33988;DHT22;37428;53.580;-1.666;2023-04-12T04:45:10;3.20;78.80
33988;DHT22;37428;53.580;-1.666;2023-04-12T04:48:15;3.20;78.80
33988;DHT22;37428;53.580;-1.666;2023-04-12T04:51:18;3.20;78.60
33988;DHT22;37428;53.580;-1.666;2023-04-12T04:54:20;3.20;78.70
33988;DHT22;37428;53.580;-1.666;2023-04-12T04:57:22;3.10;79.30
33988;DHT22;37428;53.580;-1.666;2023-04-12T05:00:26;3.10;79.70
33988;DHT22;37428;53.580;-1.666;2023-04-12T05:03:29;3.10;80.00
33988;DHT22;37428;53.580;-1.666;2023-04-12T05:06:33;3.00;80.10
33988;DHT22;37428;53.580;-1.666;2023-04-12T05:09:35;3.00;80.10
33988;DHT22;37428;53.580;-1.666;2023-04-12T05:12:37;3.00;80.60
33988;DHT22;37428;53.580;-1.666;2023-04-12T05:15:39;3.00;80.80
33988;DHT22;37428;53.580;-1.666;2023-04-12T05:18:43;2.90;81.20
33988;DHT22;37428;53.580;-1.666;2023-04-12T05:21:45;3.00;81.40
33988;DHT22;37428;53.580;-1.666;2023-04-12T05:24:47;2.90;81.60
33988;DHT22;37428;53.580;-1.666;2023-04-12T05:27:49;2.90;81.70
33988;DHT22;37428;53.580;-1.666;2023-04-12T05:30:51;2.90;81.60
33988;DHT22;37428;53.580;-1.666;2023-04-12T05:33:55;2.90;81.50
33988;DHT22;37428;53.580;-1.666;2023-04-12T05:36:57;2.90;81.50
33988;DHT22;37428;53.580;-1.666;2023-04-12T05:40:00;3.00;81.60
33988;DHT22;37428;53.580;-1.666;2023-04-12T05:43:03;2.90;81.60
33988;DHT22;37428;53.580;-1.666;2023-04-12T05:46:06;3.00;81.60
33988;DHT22;37428;53.580;-1.666;2023-04-12T05:49:09;3.00;82.30
33988;DHT22;37428;53.580;-1.666;2023-04-12T05:52:12;3.00;81.70
33988;DHT22;37428;53.580;-1.666;2023-04-12T05:55:14;3.10;81.80
33988;DHT22;37428;53.580;-1.666;2023-04-12T05:58:18;3.10;81.10
33988;DHT22;37428;53.580;-1.666;2023-04-12T06:01:20;3.20;80.90
33988;DHT22;37428;53.580;-1.666;2023-04-12T06:04:24;3.30;80.60
33988;DHT22;37428;53.580;-1.666;2023-04-12T06:07:26;3.40;80.30
33988;DHT22;37428;53.580;-1.666;2023-04-12T06:10:28;3.60;79.90
33988;DHT22;37428;53.580;-1.666;2023-04-12T06:13:30;3.70;79.10
33988;DHT22;37428;53.580;-1.666;2023-04-12T06:16:33;3.80;78.20
33988;DHT22;37428;53.580;-1.666;2023-04-12T06:19:36;3.90;78.20
33988;DHT22;37428;53.580;-1.666;2023-04-12T06:22:38;3.80;78.40
33988;DHT22;37428;53.580;-1.666;2023-04-12T06:25:40;3.70;77.70
33988;DHT22;37428;53.580;-1.666;2023-04-12T06:28:42;3.60;77.40
33988;DHT22;37428;53.580;-1.666;2023-04-12T06:31:44;3.60;77.80
33988;DHT22;37428;53.580;-1.666;2023-04-12T06:34:48;3.70;77.00
33988;DHT22;37428;53.580;-1.666;2023-04-12T06:37:50;4.00;76.90
33988;DHT22;37428;53.580;-1.666;2023-04-12T06:40:52;4.20;76.10
33988;DHT22;37428;53.580;-1.666;2023-04-12T06:43:55;4.50;76.50
33988;DHT22;37428;53.580;-1.666;2023-04-12T06:46:57;4.70;75.50
33988;DHT22;37428;53.580;-1.666;2023-04-12T06:50:00;4.90;72.90
33988;DHT22;37428;53.580;-1.666;2023-04-12T06:53:02;5.10;72.90
33988;DHT22;37428;53.580;-1.666;2023-04-12T06:56:05;5.10;72.40
33988;DHT22;37428;53.580;-1.666;2023-04-12T06:59:07;5.20;73.20
33988;DHT22;37428;53.580;-1.666;2023-04-12T07:02:10;5.30;73.20
33988;DHT22;37428;53.580;-1.666;2023-04-12T07:05:14;5.30;72.10
33988;DHT22;37428;53.580;-1.666;2023-04-12T07:08:16;5.20;71.20
33988;DHT22;37428;53.580;-1.666;2023-04-12T07:11:19;5.20;71.30
33988;DHT22;37428;53.580;-1.666;2023-04-12T07:14:22;5.30;71.20
33988;DHT22;37428;53.580;-1.666;2023-04-12T07:17:24;5.10;70.20
33988;DHT22;37428;53.580;-1.666;2023-04-12T07:20:28;5.00;71.50
33988;DHT22;37428;53.580;-1.666;2023-04-12T07:23:30;5.00;70.80
33988;DHT22;37428;53.580;-1.666;2023-04-12T07:26:32;5.20;71.20
33988;DHT22;37428;53.580;-1.666;2023-04-12T07:29:35;5.20;71.20
33988;DHT22;37428;53.580;-1.666;2023-04-12T07:32:37;5.30;69.90
33988;DHT22;37428;53.580;-1.666;2023-04-12T07:35:40;5.40;70.60
33988;DHT22;37428;53.580;-1.666;2023-04-12T07:38:42;5.70;69.00
33988;DHT22;37428;53.580;-1.666;2023-04-12T07:41:44;6.00;68.80
33988;DHT22;37428;53.580;-1.666;2023-04-12T07:44:48;6.20;68.40
33988;DHT22;37428;53.580;-1.666;2023-04-12T07:47:49;6.20;67.50
33988;DHT22;37428;53.580;-1.666;2023-04-12T07:50:53;6.30;68.50
33988;DHT22;37428;53.580;-1.666;2023-04-12T07:53:56;6.50;67.40
33988;DHT22;37428;53.580;-1.666;2023-04-12T07:56:59;6.60;67.30
33988;DHT22;37428;53.580;-1.666;2023-04-12T08:00:02;6.70;66.30
33988;DHT22;37428;53.580;-1.666;2023-04-12T08:03:05;6.70;65.10
33988;DHT22;37428;53.580;-1.666;2023-04-12T08:06:09;6.80;65.20
33988;DHT22;37428;53.580;-1.666;2023-04-12T08:09:11;6.80;65.90
33988;DHT22;37428;53.580;-1.666;2023-04-12T08:12:14;6.70;65.30
33988;DHT22;37428;53.580;-1.666;2023-04-12T08:15:16;6.80;65.00
33988;DHT22;37428;53.580;-1.666;2023-04-12T08:18:18;7.10;63.50
33988;DHT22;37428;53.580;-1.666;2023-04-12T08:21:22;7.10;62.90
33988;DHT22;37428;53.580;-1.666;2023-04-12T08:24:24;7.10;61.50
33988;DHT22;37428;53.580;-1.666;2023-04-12T08:27:28;7.20;60.90
33988;DHT22;37428;53.580;-1.666;2023-04-12T08:30:30;7.50;61.40
33988;DHT22;37428;53.580;-1.666;2023-04-12T08:33:32;7.50;60.40
33988;DHT22;37428;53.580;-1.666;2023-04-12T08:36:36;7.60;60.10
33988;DHT22;37428;53.580;-1.666;2023-04-12T08:39:38;7.70;60.40
33988;DHT22;37428;53.580;-1.666;2023-04-12T08:42:40;7.80;59.10
33988;DHT22;37428;53.580;-1.666;2023-04-12T08:45:42;7.90;59.30
33988;DHT22;37428;53.580;-1.666;2023-04-12T08:48:45;8.10;58.40
33988;DHT22;37428;53.580;-1.666;2023-04-12T08:51:50;8.10;56.90
33988;DHT22;37428;53.580;-1.666;2023-04-12T08:54:54;8.20;57.80
33988;DHT22;37428;53.580;-1.666;2023-04-12T08:57:56;8.50;56.90
33988;DHT22;37428;53.580;-1.666;2023-04-12T09:00:59;8.90;57.70
33988;DHT22;37428;53.580;-1.666;2023-04-12T09:04:05;9.10;57.20
33988;DHT22;37428;53.580;-1.666;2023-04-12T09:07:09;9.30;55.20
33988;DHT22;37428;53.580;-1.666;2023-04-12T09:10:29;9.30;55.30
33988;DHT22;37428;53.580;-1.666;2023-04-12T09:13:32;9.70;54.40
33988;DHT22;37428;53.580;-1.666;2023-04-12T09:16:36;9.70;52.50
33988;DHT22;37428;53.580;-1.666;2023-04-12T09:19:38;9.20;51.80
33988;DHT22;37428;53.580;-1.666;2023-04-12T09:22:43;9.10;53.50
33988;DHT22;37428;53.580;-1.666;2023-04-12T09:25:46;9.30;54.10
33988;DHT22;37428;53.580;-1.666;2023-04-12T09:28:51;9.90;53.50
33988;DHT22;37428;53.580;-1.666;2023-04-12T09:32:00;9.60;51.00
33988;DHT22;37428;53.580;-1.666;2023-04-12T09:35:02;9.00;52.90
33988;DHT22;37428;53.580;-1.666;2023-04-12T09:38:10;8.50;51.40
33988;DHT22;37428;53.580;-1.666;2023-04-12T09:41:16;8.50;51.60
33988;DHT22;37428;53.580;-1.666;2023-04-12T09:44:27;8.60;53.00
33988;DHT22;37428;53.580;-1.666;2023-04-12T09:47:39;8.90;54.30
33988;DHT22;37428;53.580;-1.666;2023-04-12T09:50:42;9.00;54.00
33988;DHT22;37428;53.580;-1.666;2023-04-12T09:53:45;8.60;53.40
33988;DHT22;37428;53.580;-1.666;2023-04-12T09:56:50;8.50;55.50
33988;DHT22;37428;53.580;-1.666;2023-04-12T09:59:52;8.30;56.50
33988;DHT22;37428;53.580;-1.666;2023-04-12T10:02:57;7.90;56.80
33988;DHT22;37428;53.580;-1.666;2023-04-12T10:05:59;7.90;56.70
33988;DHT22;37428;53.580;-1.666;2023-04-12T10:09:05;7.80;55.80
33988;DHT22;37428;53.580;-1.666;2023-04-12T10:12:08;7.50;55.90
33988;DHT22;37428;53.580;-1.666;2023-04-12T10:15:11;7.30;57.40
33988;DHT22;37428;53.580;-1.666;2023-04-12T10:18:17;7.20;59.40
33988;DHT22;37428;53.580;-1.666;2023-04-12T10:21:19;7.00;59.80
33988;DHT22;37428;53.580;-1.666;2023-04-12T10:24:23;6.90;60.60
33988;DHT22;37428;53.580;-1.666;2023-04-12T10:27:26;6.70;59.70
33988;DHT22;37428;53.580;-1.666;2023-04-12T10:30:29;6.50;60.70
33988;DHT22;37428;53.580;-1.666;2023-04-12T10:33:32;6.30;61.60
33988;DHT22;37428;53.580;-1.666;2023-04-12T10:36:54;6.10;63.10
33988;DHT22;37428;53.580;-1.666;2023-04-12T10:40:02;5.90;65.10
33988;DHT22;37428;53.580;-1.666;2023-04-12T10:43:23;5.90;65.70
33988;DHT22;37428;53.580;-1.666;2023-04-12T10:46:50;5.90;67.20
33988;DHT22;37428;53.580;-1.666;2023-04-12T10:50:20;5.80;69.20
33988;DHT22;37428;53.580;-1.666;2023-04-12T10:53:24;5.80;71.60
33988;DHT22;37428;53.580;-1.666;2023-04-12T10:56:37;5.60;73.10
33988;DHT22;37428;53.580;-1.666;2023-04-12T10:59:51;5.50;74.10
33988;DHT22;37428;53.580;-1.666;2023-04-12T11:03:06;5.30;74.70
33988;DHT22;37428;53.580;-1.666;2023-04-12T11:06:11;5.40;76.00
33988;DHT22;37428;53.580;-1.666;2023-04-12T11:09:20;5.40;77.90
33988;DHT22;37428;53.580;-1.666;2023-04-12T11:12:26;5.20;77.80
33988;DHT22;37428;53.580;-1.666;2023-04-12T11:15:30;5.30;79.70
33988;DHT22;37428;53.580;-1.666;2023-04-12T11:18:33;5.30;79.00
33988;DHT22;37428;53.580;-1.666;2023-04-12T11:21:36;5.40;79.00
33988;DHT22;37428;53.580;-1.666;2023-04-12T11:24:38;5.50;79.10
33988;DHT22;37428;53.580;-1.666;2023-04-12T11:27:48;5.60;80.00
33988;DHT22;37428;53.580;-1.666;2023-04-12T11:30:51;5.70;81.20
33988;DHT22;37428;53.580;-1.666;2023-04-12T11:33:53;5.70;80.70
33988;DHT22;37428;53.580;-1.666;2023-04-12T11:36:57;5.80;82.30
33988;DHT22;37428;53.580;-1.666;2023-04-12T11:39:59;5.80;80.80
33988;DHT22;37428;53.580;-1.666;2023-04-12T11:43:03;5.70;82.30
33988;DHT22;37428;53.580;-1.666;2023-04-12T11:46:05;5.50;81.80
33988;DHT22;37428;53.580;-1.666;2023-04-12T11:49:08;5.50;83.70
33988;DHT22;37428;53.580;-1.666;2023-04-12T11:52:10;5.40;84.10
33988;DHT22;37428;53.580;-1.666;2023-04-12T11:55:13;5.20;83.60
33988;DHT22;37428;53.580;-1.666;2023-04-12T11:58:21;5.10;83.80
33988;DHT22;37428;53.580;-1.666;2023-04-12T12:01:23;5.10;85.30
33988;DHT22;37428;53.580;-1.666;2023-04-12T12:04:27;5.20;86.00
33988;DHT22;37428;53.580;-1.666;2023-04-12T12:07:29;5.30;86.00
33988;DHT22;37428;53.580;-1.666;2023-04-12T12:10:32;5.40;85.50
33988;DHT22;37428;53.580;-1.666;2023-04-12T12:13:45;5.40;85.70
33988;DHT22;37428;53.580;-1.666;2023-04-12T12:16:54;5.60;86.20
33988;DHT22;37428;53.580;-1.666;2023-04-12T12:19:57;5.70;85.20
33988;DHT22;37428;53.580;-1.666;2023-04-12T12:23:01;5.90;85.00
33988;DHT22;37428;53.580;-1.666;2023-04-12T12:26:03;6.10;85.20
33988;DHT22;37428;53.580;-1.666;2023-04-12T12:29:16;6.00;83.40
33988;DHT22;37428;53.580;-1.666;2023-04-12T12:32:19;6.00;84.00
33988;DHT22;37428;53.580;-1.666;2023-04-12T12:35:24;5.90;83.80
33988;DHT22;37428;53.580;-1.666;2023-04-12T12:38:34;5.80;83.60
33988;DHT22;37428;53.580;-1.666;2023-04-12T12:41:37;5.70;84.10
33988;DHT22;37428;53.580;-1.666;2023-04-12T12:44:40;5.60;85.00
33988;DHT22;37428;53.580;-1.666;2023-04-12T12:47:47;5.60;84.70
33988;DHT22;37428;53.580;-1.666;2023-04-12T12:50:49;5.70;84.90
33988;DHT22;37428;53.580;-1.666;2023-04-12T12:53:53;5.70;85.40
33988;DHT22;37428;53.580;-1.666;2023-04-12T12:56:55;5.70;85.20
33988;DHT22;37428;53.580;-1.666;2023-04-12T12:59:59;5.70;86.10
33988;DHT22;37428;53.580;-1.666;2023-04-12T13:03:03;5.90;84.50
33988;DHT22;37428;53.580;-1.666;2023-04-12T13:06:06;6.00;85.40
33988;DHT22;37428;53.580;-1.666;2023-04-12T13:09:09;6.10;84.00
33988;DHT22;37428;53.580;-1.666;2023-04-12T13:12:11;6.10;83.20
33988;DHT22;37428;53.580;-1.666;2023-04-12T13:15:16;6.20;83.00
33988;DHT22;37428;53.580;-1.666;2023-04-12T13:18:18;6.40;82.00
33988;DHT22;37428;53.580;-1.666;2023-04-12T13:21:21;6.40;81.10
33988;DHT22;37428;53.580;-1.666;2023-04-12T13:24:23;6.40;80.30
33988;DHT22;37428;53.580;-1.666;2023-04-12T13:27:25;6.50;81.10
33988;DHT22;37428;53.580;-1.666;2023-04-12T13:30:28;6.70;80.80
33988;DHT22;37428;53.580;-1.666;2023-04-12T13:33:30;6.80;81.40
33988;DHT22;37428;53.580;-1.666;2023-04-12T13:36:32;6.90;80.30
33988;DHT22;37428;53.580;-1.666;2023-04-12T13:39:34;6.90;77.50
33988;DHT22;37428;53.580;-1.666;2023-04-12T13:42:37;7.00;78.10
33988;DHT22;37428;53.580;-1.666;2023-04-12T13:45:40;7.00;74.90
33988;DHT22;37428;53.580;-1.666;2023-04-12T13:48:42;7.00;75.90
33988;DHT22;37428;53.580;-1.666;2023-04-12T13:51:45;7.10;76.70
33988;DHT22;37428;53.580;-1.666;2023-04-12T13:54:47;7.10;75.00
33988;DHT22;37428;53.580;-1.666;2023-04-12T13:57:50;7.10;73.50
33988;DHT22;37428;53.580;-1.666;2023-04-12T14:00:54;7.20;75.10
33988;DHT22;37428;53.580;-1.666;2023-04-12T14:03:59;7.40;75.90
33988;DHT22;37428;53.580;-1.666;2023-04-12T14:07:01;7.50;74.10
33988;DHT22;37428;53.580;-1.666;2023-04-12T14:10:03;7.70;72.60
33988;DHT22;37428;53.580;-1.666;2023-04-12T14:13:06;7.70;74.10
33988;DHT22;37428;53.580;-1.666;2023-04-12T14:16:09;7.70;73.50
33988;DHT22;37428;53.580;-1.666;2023-04-12T14:19:11;7.70;73.50
33988;DHT22;37428;53.580;-1.666;2023-04-12T14:22:13;7.70;75.20
33988;DHT22;37428;53.580;-1.666;2023-04-12T14:25:15;7.60;75.80
33988;DHT22;37428;53.580;-1.666;2023-04-12T14:28:18;7.40;74.70
33988;DHT22;37428;53.580;-1.666;2023-04-12T14:31:22;7.20;76.00
33988;DHT22;37428;53.580;-1.666;2023-04-12T14:34:25;7.00;78.70
33988;DHT22;37428;53.580;-1.666;2023-04-12T14:37:27;6.90;80.00
33988;DHT22;37428;53.580;-1.666;2023-04-12T14:40:29;7.00;79.90
33988;DHT22;37428;53.580;-1.666;2023-04-12T14:43:31;7.00;77.10
33988;DHT22;37428;53.580;-1.666;2023-04-12T14:46:34;6.90;76.70
33988;DHT22;37428;53.580;-1.666;2023-04-12T14:49:36;6.80;76.90
33988;DHT22;37428;53.580;-1.666;2023-04-12T14:52:38;6.70;77.30
33988;DHT22;37428;53.580;-1.666;2023-04-12T14:55:40;6.50;78.70
33988;DHT22;37428;53.580;-1.666;2023-04-12T14:58:42;6.50;79.80
33988;DHT22;37428;53.580;-1.666;2023-04-12T15:01:46;6.80;82.40
33988;DHT22;37428;53.580;-1.666;2023-04-12T15:04:48;7.10;83.80
33988;DHT22;37428;53.580;-1.666;2023-04-12T15:07:50;7.20;81.90
33988;DHT22;37428;53.580;-1.666;2023-04-12T15:10:53;7.10;80.80
33988;DHT22;37428;53.580;-1.666;2023-04-12T15:13:55;7.00;81.10
33988;DHT22;37428;53.580;-1.666;2023-04-12T15:16:59;6.90;81.70
33988;DHT22;37428;53.580;-1.666;2023-04-12T15:20:01;7.00;80.60
33988;DHT22;37428;53.580;-1.666;2023-04-12T15:23:09;7.20;80.80
33988;DHT22;37428;53.580;-1.666;2023-04-12T15:26:12;7.60;81.00
33988;DHT22;37428;53.580;-1.666;2023-04-12T15:29:15;7.80;78.10
33988;DHT22;37428;53.580;-1.666;2023-04-12T15:32:19;7.90;76.20
33988;DHT22;37428;53.580;-1.666;2023-04-12T15:35:21;7.80;75.90
33988;DHT22;37428;53.580;-1.666;2023-04-12T15:38:24;8.10;76.10
33988;DHT22;37428;53.580;-1.666;2023-04-12T15:41:26;8.20;74.70
33988;DHT22;37428;53.580;-1.666;2023-04-12T15:44:33;8.30;74.40
33988;DHT22;37428;53.580;-1.666;2023-04-12T15:47:37;8.30;73.20
33988;DHT22;37428;53.580;-1.666;2023-04-12T15:50:39;8.40;72.20
33988;DHT22;37428;53.580;-1.666;2023-04-12T15:53:41;8.50;72.30
33988;DHT22;37428;53.580;-1.666;2023-04-12T15:56:43;8.40;71.30
33988;DHT22;37428;53.580;-1.666;2023-04-12T15:59:45;8.10;73.80
33988;DHT22;37428;53.580;-1.666;2023-04-12T16:02:50;8.00;75.20
33988;DHT22;37428;53.580;-1.666;2023-04-12T16:05:54;7.90;75.70
33988;DHT22;37428;53.580;-1.666;2023-04-12T16:08:56;7.80;76.80
33988;DHT22;37428;53.580;-1.666;2023-04-12T16:11:58;7.80;77.60
33988;DHT22;37428;53.580;-1.666;2023-04-12T16:15:01;7.60;77.30
33988;DHT22;37428;53.580;-1.666;2023-04-12T16:18:06;7.40;79.50
33988;DHT22;37428;53.580;-1.666;2023-04-12T16:21:09;7.20;81.50
33988;DHT22;37428;53.580;-1.666;2023-04-12T16:24:12;6.90;81.70
33988;DHT22;37428;53.580;-1.666;2023-04-12T16:27:14;6.80;83.00
33988;DHT22;37428;53.580;-1.666;2023-04-12T16:30:16;6.70;84.20
33988;DHT22;37428;53.580;-1.666;2023-04-12T16:33:19;6.60;83.10
33988;DHT22;37428;53.580;-1.666;2023-04-12T16:36:22;6.50;82.30
33988;DHT22;37428;53.580;-1.666;2023-04-12T16:39:26;6.60;83.40
33988;DHT22;37428;53.580;-1.666;2023-04-12T16:42:29;6.60;84.40
33988;DHT22;37428;53.580;-1.666;2023-04-12T16:45:31;6.70;84.50
33988;DHT22;37428;53.580;-1.666;2023-04-12T16:48:35;6.70;83.60
33988;DHT22;37428;53.580;-1.666;2023-04-12T16:51:39;6.70;83.80
33988;DHT22;37428;53.580;-1.666;2023-04-12T16:54:42;6.80;83.50
33988;DHT22;37428;53.580;-1.666;2023-04-12T16:57:44;6.70;82.80
33988;DHT22;37428;53.580;-1.666;2023-04-12T17:00:47;6.60;82.90
33988;DHT22;37428;53.580;-1.666;2023-04-12T17:03:50;6.60;82.90
33988;DHT22;37428;53.580;-1.666;2023-04-12T17:06:53;6.50;82.00
33988;DHT22;37428;53.580;-1.666;2023-04-12T17:09:55;6.40;82.80
33988;DHT22;37428;53.580;-1.666;2023-04-12T17:12:57;6.30;83.70
33988;DHT22;37428;53.580;-1.666;2023-04-12T17:16:01;6.40;84.00
33988;DHT22;37428;53.580;-1.666;2023-04-12T17:19:05;6.40;84.20
33988;DHT22;37428;53.580;-1.666;2023-04-12T17:22:08;6.30;84.20
33988;DHT22;37428;53.580;-1.666;2023-04-12T17:25:10;6.20;84.20
33988;DHT22;37428;53.580;-1.666;2023-04-12T17:28:12;6.10;83.40
33988;DHT22;37428;53.580;-1.666;2023-04-12T17:31:15;6.10;83.70
33988;DHT22;37428;53.580;-1.666;2023-04-12T17:34:22;6.10;84.30
33988;DHT22;37428;53.580;-1.666;2023-04-12T17:37:25;6.10;83.50
33988;DHT22;37428;53.580;-1.666;2023-04-12T17:40:28;6.00;83.90
33988;DHT22;37428;53.580;-1.666;2023-04-12T17:43:30;6.00;84.20
33988;DHT22;37428;53.580;-1.666;2023-04-12T17:46:32;5.90;85.10
33988;DHT22;37428;53.580;-1.666;2023-04-12T17:49:36;5.80;86.00
33988;DHT22;37428;53.580;-1.666;2023-04-12T17:52:39;5.80;86.40
33988;DHT22;37428;53.580;-1.666;2023-04-12T17:55:42;5.80;86.10
33988;DHT22;37428;53.580;-1.666;2023-04-12T17:58:44;5.70;86.10
33988;DHT22;37428;53.580;-1.666;2023-04-12T18:01:46;5.60;85.80
33988;DHT22;37428;53.580;-1.666;2023-04-12T18:04:50;5.60;86.30
33988;DHT22;37428;53.580;-1.666;2023-04-12T18:07:53;5.50;85.60
33988;DHT22;37428;53.580;-1.666;2023-04-12T18:10:58;5.50;86.30
33988;DHT22;37428;53.580;-1.666;2023-04-12T18:14:00;5.50;86.70
33988;DHT22;37428;53.580;-1.666;2023-04-12T18:17:02;5.50;87.40
33988;DHT22;37428;53.580;-1.666;2023-04-12T18:20:07;5.50;88.10
33988;DHT22;37428;53.580;-1.666;2023-04-12T18:23:10;5.40;88.40
33988;DHT22;37428;53.580;-1.666;2023-04-12T18:26:13;5.40;88.70
33988;DHT22;37428;53.580;-1.666;2023-04-12T18:29:15;5.40;89.10
33988;DHT22;37428;53.580;-1.666;2023-04-12T18:32:18;5.30;89.20
33988;DHT22;37428;53.580;-1.666;2023-04-12T18:35:22;5.30;88.80
33988;DHT22;37428;53.580;-1.666;2023-04-12T18:38:24;5.30;89.30
33988;DHT22;37428;53.580;-1.666;2023-04-12T18:41:26;5.40;89.70
33988;DHT22;37428;53.580;-1.666;2023-04-12T18:44:28;5.40;89.60
33988;DHT22;37428;53.580;-1.666;2023-04-12T18:47:30;5.40;89.50
33988;DHT22;37428;53.580;-1.666;2023-04-12T18:50:34;5.40;89.50
33988;DHT22;37428;53.580;-1.666;2023-04-12T18:53:38;5.50;89.70
33988;DHT22;37428;53.580;-1.666;2023-04-12T18:56:41;5.50;89.80
33988;DHT22;37428;53.580;-1.666;2023-04-12T18:59:43;5.50;90.20
33988;DHT22;37428;53.580;-1.666;2023-04-12T19:02:47;5.60;90.20
33988;DHT22;37428;53.580;-1.666;2023-04-12T19:05:52;5.70;90.50
33988;DHT22;37428;53.580;-1.666;2023-04-12T19:08:54;5.50;90.40
33988;DHT22;37428;53.580;-1.666;2023-04-12T19:11:57;5.50;90.50
33988;DHT22;37428;53.580;-1.666;2023-04-12T19:14:59;5.50;90.50
33988;DHT22;37428;53.580;-1.666;2023-04-12T19:18:02;5.50;90.60
33988;DHT22;37428;53.580;-1.666;2023-04-12T19:21:06;5.50;90.80